sensor_id;sensor_type;location;lat;lon;timestamp;P1;durP1;ratioP1;P2;durP2;ratioP2
3922;SDS011;1976;51.694;6.256;2022-08-06T00:01:46;9.47;;;3.10;;
3922;SDS011;1976;51.694;6.256;2022-08-06T00:04:11;8.80;;;2.60;;
3922;SDS011;1976;51.694;6.256;2022-08-06T00:06:37;6.03;;;2.23;;
3922;SDS011;1976;51.694;6.256;2022-08-06T00:09:02;12.93;;;2.77;;
3922;SDS011;1976;51.694;6.256;2022-08-06T00:11:28;4.70;;;2.50;;
3922;SDS011;1976;51.694;6.256;2022-08-06T00:13:54;6.53;;;2.63;;
3922;SDS011;1976;51.694;6.256;2022-08-06T00:16:19;4.93;;;2.27;;
3922;SDS011;1976;51.694;6.256;2022-08-06T00:18:45;4.13;;;2.30;;
3922;SDS011;1976;51.694;6.256;2022-08-06T00:21:11;4.13;;;2.00;;
3922;SDS011;1976;51.694;6.256;2022-08-06T00:23:36;3.03;;;2.13;;
3922;SDS011;1976;51.694;6.256;2022-08-06T00:26:02;10.30;;;3.03;;
3922;SDS011;1976;51.694;6.256;2022-08-06T00:28:27;5.87;;;2.47;;
3922;SDS011;1976;51.694;6.256;2022-08-06T00:30:53;9.23;;;2.80;;
3922;SDS011;1976;51.694;6.256;2022-08-06T00:33:19;5.27;;;2.60;;
3922;SDS011;1976;51.694;6.256;2022-08-06T00:35:44;8.73;;;2.40;;
3922;SDS011;1976;51.694;6.256;2022-08-06T00:38:10;11.63;;;3.00;;
3922;SDS011;1976;51.694;6.256;2022-08-06T00:40:37;3.83;;;2.30;;
3922;SDS011;1976;51.694;6.256;2022-08-06T00:43:03;9.00;;;2.60;;
3922;SDS011;1976;51.694;6.256;2022-08-06T00:45:30;8.70;;;2.40;;
3922;SDS011;1976;51.694;6.256;2022-08-06T00:47:56;9.13;;;2.70;;
3922;SDS011;1976;51.694;6.256;2022-08-06T00:50:22;11.53;;;3.20;;
3922;SDS011;1976;51.694;6.256;2022-08-06T00:52:48;9.03;;;2.40;;
3922;SDS011;1976;51.694;6.256;2022-08-06T00:55:14;29.53;;;2.73;;
3922;SDS011;1976;51.694;6.256;2022-08-06T00:57:39;7.73;;;2.10;;
3922;SDS011;1976;51.694;6.256;2022-08-06T01:00:05;7.43;;;2.73;;
3922;SDS011;1976;51.694;6.256;2022-08-06T01:02:33;10.43;;;2.60;;
3922;SDS011;1976;51.694;6.256;2022-08-06T01:04:59;9.20;;;2.47;;
3922;SDS011;1976;51.694;6.256;2022-08-06T01:07:24;17.27;;;3.10;;
3922;SDS011;1976;51.694;6.256;2022-08-06T01:09:50;3.40;;;1.80;;
3922;SDS011;1976;51.694;6.256;2022-08-06T01:12:16;2.90;;;1.90;;
3922;SDS011;1976;51.694;6.256;2022-08-06T01:14:42;6.43;;;1.93;;
3922;SDS011;1976;51.694;6.256;2022-08-06T01:17:14;4.83;;;2.17;;
3922;SDS011;1976;51.694;6.256;2022-08-06T01:30:51;4.90;;;2.10;;
3922;SDS011;1976;51.694;6.256;2022-08-06T01:33:29;6.30;;;2.43;;
3922;SDS011;1976;51.694;6.256;2022-08-06T01:35:59;8.87;;;3.53;;
3922;SDS011;1976;51.694;6.256;2022-08-06T01:38:31;7.70;;;2.43;;
3922;SDS011;1976;51.694;6.256;2022-08-06T01:41:00;2.83;;;2.40;;
3922;SDS011;1976;51.694;6.256;2022-08-06T01:43:30;5.60;;;2.10;;
3922;SDS011;1976;51.694;6.256;2022-08-06T01:45:57;8.63;;;2.33;;
3922;SDS011;1976;51.694;6.256;2022-08-06T01:48:25;6.50;;;2.50;;
3922;SDS011;1976;51.694;6.256;2022-08-06T01:50:52;6.77;;;2.10;;
3922;SDS011;1976;51.694;6.256;2022-08-06T01:53:34;10.30;;;2.80;;
3922;SDS011;1976;51.694;6.256;2022-08-06T01:56:02;5.20;;;2.00;;
3922;SDS011;1976;51.694;6.256;2022-08-06T01:58:32;4.50;;;2.70;;
3922;SDS011;1976;51.694;6.256;2022-08-06T02:01:04;6.20;;;2.60;;
3922;SDS011;1976;51.694;6.256;2022-08-06T02:03:33;5.53;;;2.60;;
3922;SDS011;1976;51.694;6.256;2022-08-06T02:06:02;4.13;;;2.67;;
3922;SDS011;1976;51.694;6.256;2022-08-06T02:08:31;5.30;;;2.37;;
3922;SDS011;1976;51.694;6.256;2022-08-06T02:10:59;9.90;;;2.53;;
3922;SDS011;1976;51.694;6.256;2022-08-06T02:13:27;8.80;;;2.60;;
3922;SDS011;1976;51.694;6.256;2022-08-06T02:15:57;5.57;;;2.30;;
3922;SDS011;1976;51.694;6.256;2022-08-06T02:18:27;4.80;;;2.10;;
3922;SDS011;1976;51.694;6.256;2022-08-06T02:20:56;3.53;;;1.90;;
3922;SDS011;1976;51.694;6.256;2022-08-06T02:23:24;15.27;;;2.20;;
3922;SDS011;1976;51.694;6.256;2022-08-06T02:25:53;8.13;;;2.70;;
3922;SDS011;1976;51.694;6.256;2022-08-06T02:28:20;8.10;;;2.70;;
3922;SDS011;1976;51.694;6.256;2022-08-06T02:30:49;9.77;;;2.60;;
3922;SDS011;1976;51.694;6.256;2022-08-06T02:33:18;17.30;;;3.00;;
3922;SDS011;1976;51.694;6.256;2022-08-06T02:35:45;3.67;;;2.10;;
3922;SDS011;1976;51.694;6.256;2022-08-06T02:38:20;8.70;;;2.63;;
3922;SDS011;1976;51.694;6.256;2022-08-06T02:40:49;8.73;;;2.50;;
3922;SDS011;1976;51.694;6.256;2022-08-06T02:43:22;2.47;;;2.00;;
3922;SDS011;1976;51.694;6.256;2022-08-06T02:46:09;2.20;;;2.00;;
3922;SDS011;1976;51.694;6.256;2022-08-06T02:51:19;4.23;;;2.37;;
3922;SDS011;1976;51.694;6.256;2022-08-06T02:54:53;3.60;;;2.20;;
3922;SDS011;1976;51.694;6.256;2022-08-06T02:56:50;4.33;;;2.33;;
3922;SDS011;1976;51.694;6.256;2022-08-06T02:59:20;3.53;;;2.40;;
3922;SDS011;1976;51.694;6.256;2022-08-06T03:01:54;10.40;;;3.43;;
3922;SDS011;1976;51.694;6.256;2022-08-06T03:04:24;4.77;;;2.23;;
3922;SDS011;1976;51.694;6.256;2022-08-06T03:06:53;2.20;;;2.00;;
3922;SDS011;1976;51.694;6.256;2022-08-06T03:09:20;7.13;;;2.67;;
3922;SDS011;1976;51.694;6.256;2022-08-06T03:11:47;4.97;;;2.37;;
3922;SDS011;1976;51.694;6.256;2022-08-06T03:14:15;9.60;;;2.27;;
3922;SDS011;1976;51.694;6.256;2022-08-06T03:16:41;6.97;;;2.50;;
3922;SDS011;1976;51.694;6.256;2022-08-06T03:19:08;8.07;;;2.40;;
3922;SDS011;1976;51.694;6.256;2022-08-06T03:21:36;11.17;;;2.70;;
3922;SDS011;1976;51.694;6.256;2022-08-06T03:24:03;5.00;;;2.63;;
3922;SDS011;1976;51.694;6.256;2022-08-06T03:26:31;6.30;;;2.50;;
3922;SDS011;1976;51.694;6.256;2022-08-06T03:28:57;5.80;;;2.43;;
3922;SDS011;1976;51.694;6.256;2022-08-06T03:31:25;3.80;;;2.27;;
3922;SDS011;1976;51.694;6.256;2022-08-06T03:33:52;14.73;;;2.30;;
3922;SDS011;1976;51.694;6.256;2022-08-06T03:36:18;8.73;;;2.40;;
3922;SDS011;1976;51.694;6.256;2022-08-06T03:38:46;8.23;;;2.43;;
3922;SDS011;1976;51.694;6.256;2022-08-06T03:41:15;2.40;;;1.80;;
3922;SDS011;1976;51.694;6.256;2022-08-06T03:43:42;6.50;;;2.23;;
3922;SDS011;1976;51.694;6.256;2022-08-06T03:46:08;4.30;;;2.50;;
3922;SDS011;1976;51.694;6.256;2022-08-06T03:48:37;2.70;;;2.40;;
3922;SDS011;1976;51.694;6.256;2022-08-06T03:51:15;4.37;;;2.37;;
3922;SDS011;1976;51.694;6.256;2022-08-06T03:53:45;12.50;;;3.07;;
3922;SDS011;1976;51.694;6.256;2022-08-06T03:56:14;6.27;;;2.60;;
3922;SDS011;1976;51.694;6.256;2022-08-06T03:58:43;4.17;;;2.57;;
3922;SDS011;1976;51.694;6.256;2022-08-06T04:01:12;5.43;;;2.50;;
3922;SDS011;1976;51.694;6.256;2022-08-06T04:03:41;11.30;;;2.90;;
3922;SDS011;1976;51.694;6.256;2022-08-06T04:06:07;4.17;;;2.50;;
3922;SDS011;1976;51.694;6.256;2022-08-06T04:08:36;6.00;;;2.33;;
3922;SDS011;1976;51.694;6.256;2022-08-06T04:11:04;5.40;;;2.67;;
3922;SDS011;1976;51.694;6.256;2022-08-06T04:13:30;2.43;;;2.27;;
3922;SDS011;1976;51.694;6.256;2022-08-06T04:15:56;5.77;;;2.63;;
3922;SDS011;1976;51.694;6.256;2022-08-06T04:18:27;4.30;;;2.53;;
3922;SDS011;1976;51.694;6.256;2022-08-06T04:20:57;8.90;;;2.50;;
3922;SDS011;1976;51.694;6.256;2022-08-06T04:23:25;3.90;;;2.87;;
3922;SDS011;1976;51.694;6.256;2022-08-06T04:25:52;5.67;;;2.33;;
3922;SDS011;1976;51.694;6.256;2022-08-06T04:28:23;4.83;;;2.20;;
3922;SDS011;1976;51.694;6.256;2022-08-06T04:30:51;8.00;;;2.30;;
3922;SDS011;1976;51.694;6.256;2022-08-06T04:33:19;7.63;;;2.27;;
3922;SDS011;1976;51.694;6.256;2022-08-06T04:35:47;3.87;;;2.17;;
3922;SDS011;1976;51.694;6.256;2022-08-06T04:38:14;4.50;;;1.60;;
3922;SDS011;1976;51.694;6.256;2022-08-06T04:40:41;6.20;;;2.43;;
3922;SDS011;1976;51.694;6.256;2022-08-06T04:43:08;4.30;;;2.40;;
3922;SDS011;1976;51.694;6.256;2022-08-06T04:45:41;4.40;;;2.20;;
3922;SDS011;1976;51.694;6.256;2022-08-06T04:48:09;3.90;;;2.50;;
3922;SDS011;1976;51.694;6.256;2022-08-06T04:50:36;6.33;;;2.43;;
3922;SDS011;1976;51.694;6.256;2022-08-06T04:55:31;16.43;;;2.57;;
3922;SDS011;1976;51.694;6.256;2022-08-06T04:57:57;5.80;;;2.30;;
3922;SDS011;1976;51.694;6.256;2022-08-06T05:00:23;4.33;;;2.30;;
3922;SDS011;1976;51.694;6.256;2022-08-06T05:02:50;4.80;;;2.40;;
3922;SDS011;1976;51.694;6.256;2022-08-06T05:05:16;3.17;;;2.20;;
3922;SDS011;1976;51.694;6.256;2022-08-06T05:07:44;7.37;;;2.90;;
3922;SDS011;1976;51.694;6.256;2022-08-06T05:10:11;3.43;;;2.30;;
3922;SDS011;1976;51.694;6.256;2022-08-06T05:12:38;6.07;;;2.77;;
3922;SDS011;1976;51.694;6.256;2022-08-06T05:15:14;9.47;;;2.40;;
3922;SDS011;1976;51.694;6.256;2022-08-06T05:17:41;4.73;;;2.43;;
3922;SDS011;1976;51.694;6.256;2022-08-06T05:20:11;2.17;;;2.00;;
3922;SDS011;1976;51.694;6.256;2022-08-06T05:22:40;6.83;;;3.03;;
3922;SDS011;1976;51.694;6.256;2022-08-06T05:25:07;4.20;;;2.73;;
3922;SDS011;1976;51.694;6.256;2022-08-06T05:27:33;8.17;;;3.00;;
3922;SDS011;1976;51.694;6.256;2022-08-06T05:30:00;4.90;;;2.67;;
3922;SDS011;1976;51.694;6.256;2022-08-06T05:32:26;7.13;;;3.00;;
3922;SDS011;1976;51.694;6.256;2022-08-06T05:34:52;10.23;;;3.20;;
3922;SDS011;1976;51.694;6.256;2022-08-06T05:37:18;8.53;;;3.00;;
3922;SDS011;1976;51.694;6.256;2022-08-06T05:39:43;7.80;;;3.60;;
3922;SDS011;1976;51.694;6.256;2022-08-06T05:42:09;8.40;;;2.70;;
3922;SDS011;1976;51.694;6.256;2022-08-06T05:44:34;3.17;;;2.47;;
3922;SDS011;1976;51.694;6.256;2022-08-06T05:47:09;11.53;;;2.70;;
3922;SDS011;1976;51.694;6.256;2022-08-06T05:49:42;4.23;;;2.60;;
3922;SDS011;1976;51.694;6.256;2022-08-06T05:57:47;6.57;;;2.80;;
3922;SDS011;1976;51.694;6.256;2022-08-06T06:00:16;7.50;;;3.20;;
3922;SDS011;1976;51.694;6.256;2022-08-06T06:02:44;15.90;;;4.00;;
3922;SDS011;1976;51.694;6.256;2022-08-06T06:05:11;4.00;;;2.80;;
3922;SDS011;1976;51.694;6.256;2022-08-06T06:07:39;9.87;;;2.80;;
3922;SDS011;1976;51.694;6.256;2022-08-06T06:10:05;4.60;;;3.20;;
3922;SDS011;1976;51.694;6.256;2022-08-06T06:12:32;8.37;;;3.27;;
3922;SDS011;1976;51.694;6.256;2022-08-06T06:15:00;5.30;;;3.20;;
3922;SDS011;1976;51.694;6.256;2022-08-06T06:17:33;8.63;;;3.30;;
3922;SDS011;1976;51.694;6.256;2022-08-06T06:25:27;19.40;;;3.63;;
3922;SDS011;1976;51.694;6.256;2022-08-06T06:30:59;8.03;;;2.60;;
3922;SDS011;1976;51.694;6.256;2022-08-06T06:36:30;5.40;;;2.27;;
3922;SDS011;1976;51.694;6.256;2022-08-06T06:39:06;8.00;;;2.40;;
3922;SDS011;1976;51.694;6.256;2022-08-06T06:41:43;15.10;;;2.47;;
3922;SDS011;1976;51.694;6.256;2022-08-06T06:46:50;5.33;;;2.13;;
3922;SDS011;1976;51.694;6.256;2022-08-06T06:49:37;6.40;;;2.00;;
3922;SDS011;1976;51.694;6.256;2022-08-06T06:54:46;10.40;;;2.00;;
3922;SDS011;1976;51.694;6.256;2022-08-06T06:57:17;3.43;;;1.70;;
3922;SDS011;1976;51.694;6.256;2022-08-06T06:59:48;3.90;;;1.70;;
3922;SDS011;1976;51.694;6.256;2022-08-06T07:02:22;9.93;;;1.63;;
3922;SDS011;1976;51.694;6.256;2022-08-06T07:04:53;6.33;;;2.00;;
3922;SDS011;1976;51.694;6.256;2022-08-06T07:07:20;5.40;;;1.40;;
3922;SDS011;1976;51.694;6.256;2022-08-06T07:09:46;6.33;;;1.83;;
3922;SDS011;1976;51.694;6.256;2022-08-06T07:12:14;3.20;;;1.57;;
3922;SDS011;1976;51.694;6.256;2022-08-06T07:14:41;12.93;;;2.07;;
3922;SDS011;1976;51.694;6.256;2022-08-06T07:17:09;2.97;;;1.60;;
3922;SDS011;1976;51.694;6.256;2022-08-06T07:19:36;3.20;;;1.50;;
3922;SDS011;1976;51.694;6.256;2022-08-06T07:22:02;2.23;;;1.23;;
3922;SDS011;1976;51.694;6.256;2022-08-06T07:24:28;4.20;;;1.10;;
3922;SDS011;1976;51.694;6.256;2022-08-06T07:26:58;11.40;;;1.47;;
3922;SDS011;1976;51.694;6.256;2022-08-06T07:29:26;10.17;;;1.40;;
3922;SDS011;1976;51.694;6.256;2022-08-06T07:31:54;2.67;;;1.30;;
3922;SDS011;1976;51.694;6.256;2022-08-06T07:34:21;3.60;;;1.20;;
3922;SDS011;1976;51.694;6.256;2022-08-06T07:36:49;9.93;;;1.27;;
3922;SDS011;1976;51.694;6.256;2022-08-06T07:39:21;3.83;;;1.40;;
3922;SDS011;1976;51.694;6.256;2022-08-06T07:41:58;4.60;;;1.40;;
3922;SDS011;1976;51.694;6.256;2022-08-06T07:44:27;4.90;;;1.20;;
3922;SDS011;1976;51.694;6.256;2022-08-06T07:46:55;2.97;;;1.20;;
3922;SDS011;1976;51.694;6.256;2022-08-06T07:49:26;2.60;;;1.00;;
3922;SDS011;1976;51.694;6.256;2022-08-06T07:51:59;4.23;;;1.17;;
3922;SDS011;1976;51.694;6.256;2022-08-06T07:54:26;6.77;;;1.77;;
3922;SDS011;1976;51.694;6.256;2022-08-06T07:56:55;7.40;;;1.20;;
3922;SDS011;1976;51.694;6.256;2022-08-06T07:59:22;9.77;;;1.47;;
3922;SDS011;1976;51.694;6.256;2022-08-06T08:01:49;4.90;;;1.30;;
3922;SDS011;1976;51.694;6.256;2022-08-06T08:04:16;1.70;;;1.20;;
3922;SDS011;1976;51.694;6.256;2022-08-06T08:07:00;3.57;;;1.70;;
3922;SDS011;1976;51.694;6.256;2022-08-06T08:09:28;1.70;;;1.20;;
3922;SDS011;1976;51.694;6.256;2022-08-06T08:11:56;1.60;;;1.13;;
3922;SDS011;1976;51.694;6.256;2022-08-06T08:14:22;6.83;;;1.60;;
3922;SDS011;1976;51.694;6.256;2022-08-06T08:16:49;7.00;;;1.23;;
3922;SDS011;1976;51.694;6.256;2022-08-06T08:19:33;4.00;;;1.00;;
3922;SDS011;1976;51.694;6.256;2022-08-06T08:22:01;7.87;;;1.13;;
3922;SDS011;1976;51.694;6.256;2022-08-06T08:24:30;5.43;;;1.07;;
3922;SDS011;1976;51.694;6.256;2022-08-06T08:26:58;2.97;;;1.00;;
3922;SDS011;1976;51.694;6.256;2022-08-06T08:29:25;3.63;;;1.67;;
3922;SDS011;1976;51.694;6.256;2022-08-06T08:31:51;1.53;;;0.90;;
3922;SDS011;1976;51.694;6.256;2022-08-06T08:34:17;1.30;;;0.80;;
3922;SDS011;1976;51.694;6.256;2022-08-06T08:36:43;3.47;;;1.20;;
3922;SDS011;1976;51.694;6.256;2022-08-06T08:39:09;12.27;;;1.20;;
3922;SDS011;1976;51.694;6.256;2022-08-06T08:44:09;6.23;;;0.80;;
3922;SDS011;1976;51.694;6.256;2022-08-06T08:46:43;5.97;;;0.90;;
3922;SDS011;1976;51.694;6.256;2022-08-06T08:49:18;1.30;;;0.97;;
3922;SDS011;1976;51.694;6.256;2022-08-06T08:51:47;2.43;;;0.93;;
3922;SDS011;1976;51.694;6.256;2022-08-06T08:54:13;2.40;;;1.20;;
3922;SDS011;1976;51.694;6.256;2022-08-06T08:56:47;9.17;;;1.00;;
3922;SDS011;1976;51.694;6.256;2022-08-06T08:59:14;1.80;;;0.90;;
3922;SDS011;1976;51.694;6.256;2022-08-06T09:01:40;4.40;;;1.03;;
3922;SDS011;1976;51.694;6.256;2022-08-06T09:04:07;4.57;;;1.00;;
3922;SDS011;1976;51.694;6.256;2022-08-06T09:06:33;5.57;;;0.83;;
3922;SDS011;1976;51.694;6.256;2022-08-06T09:09:02;3.07;;;0.87;;
3922;SDS011;1976;51.694;6.256;2022-08-06T09:11:33;11.10;;;1.73;;
3922;SDS011;1976;51.694;6.256;2022-08-06T09:14:01;2.30;;;0.70;;
3922;SDS011;1976;51.694;6.256;2022-08-06T09:16:28;2.00;;;1.13;;
3922;SDS011;1976;51.694;6.256;2022-08-06T09:18:56;2.20;;;0.80;;
3922;SDS011;1976;51.694;6.256;2022-08-06T09:21:21;2.80;;;0.93;;
3922;SDS011;1976;51.694;6.256;2022-08-06T09:23:47;1.00;;;0.80;;
3922;SDS011;1976;51.694;6.256;2022-08-06T09:26:13;1.63;;;0.80;;
3922;SDS011;1976;51.694;6.256;2022-08-06T09:28:39;2.17;;;0.70;;
3922;SDS011;1976;51.694;6.256;2022-08-06T09:31:07;1.00;;;0.90;;
3922;SDS011;1976;51.694;6.256;2022-08-06T09:33:39;2.20;;;0.87;;
3922;SDS011;1976;51.694;6.256;2022-08-06T09:38:47;2.63;;;0.80;;
3922;SDS011;1976;51.694;6.256;2022-08-06T09:41:14;3.63;;;0.90;;
3922;SDS011;1976;51.694;6.256;2022-08-06T09:43:40;2.10;;;1.00;;
3922;SDS011;1976;51.694;6.256;2022-08-06T09:46:08;2.63;;;0.87;;
3922;SDS011;1976;51.694;6.256;2022-08-06T09:48:33;1.90;;;0.83;;
3922;SDS011;1976;51.694;6.256;2022-08-06T09:50:59;1.20;;;0.80;;
3922;SDS011;1976;51.694;6.256;2022-08-06T09:53:25;2.30;;;1.00;;
3922;SDS011;1976;51.694;6.256;2022-08-06T09:55:53;3.27;;;0.90;;
3922;SDS011;1976;51.694;6.256;2022-08-06T09:58:29;4.73;;;0.90;;
3922;SDS011;1976;51.694;6.256;2022-08-06T10:01:10;1.80;;;1.10;;
3922;SDS011;1976;51.694;6.256;2022-08-06T10:03:43;1.23;;;0.70;;
3922;SDS011;1976;51.694;6.256;2022-08-06T10:06:10;2.67;;;0.70;;
3922;SDS011;1976;51.694;6.256;2022-08-06T10:08:38;0.80;;;0.80;;
3922;SDS011;1976;51.694;6.256;2022-08-06T10:11:04;0.73;;;0.60;;
3922;SDS011;1976;51.694;6.256;2022-08-06T10:13:30;2.03;;;0.60;;
3922;SDS011;1976;51.694;6.256;2022-08-06T10:15:58;1.40;;;0.90;;
3922;SDS011;1976;51.694;6.256;2022-08-06T10:18:36;3.43;;;0.70;;
3922;SDS011;1976;51.694;6.256;2022-08-06T10:21:11;1.70;;;0.80;;
3922;SDS011;1976;51.694;6.256;2022-08-06T10:23:48;0.63;;;0.60;;
3922;SDS011;1976;51.694;6.256;2022-08-06T10:26:18;1.40;;;0.80;;
3922;SDS011;1976;51.694;6.256;2022-08-06T10:28:50;2.30;;;0.60;;
3922;SDS011;1976;51.694;6.256;2022-08-06T10:31:17;2.50;;;1.10;;
3922;SDS011;1976;51.694;6.256;2022-08-06T10:33:55;1.47;;;1.00;;
3922;SDS011;1976;51.694;6.256;2022-08-06T10:37:01;8.57;;;1.20;;
3922;SDS011;1976;51.694;6.256;2022-08-06T10:39:22;1.47;;;0.87;;
3922;SDS011;1976;51.694;6.256;2022-08-06T10:41:55;3.23;;;0.80;;
3922;SDS011;1976;51.694;6.256;2022-08-06T10:44:22;2.93;;;1.57;;
3922;SDS011;1976;51.694;6.256;2022-08-06T10:46:52;4.37;;;1.37;;
3922;SDS011;1976;51.694;6.256;2022-08-06T10:49:22;2.60;;;0.60;;
3922;SDS011;1976;51.694;6.256;2022-08-06T10:51:49;1.30;;;0.70;;
3922;SDS011;1976;51.694;6.256;2022-08-06T10:54:17;2.80;;;1.20;;
3922;SDS011;1976;51.694;6.256;2022-08-06T10:56:47;1.37;;;0.93;;
3922;SDS011;1976;51.694;6.256;2022-08-06T10:59:14;1.07;;;0.70;;
3922;SDS011;1976;51.694;6.256;2022-08-06T11:15:56;2.60;;;0.80;;
3922;SDS011;1976;51.694;6.256;2022-08-06T11:18:21;0.60;;;0.60;;
3922;SDS011;1976;51.694;6.256;2022-08-06T11:20:48;7.47;;;0.70;;
3922;SDS011;1976;51.694;6.256;2022-08-06T11:25:47;1.40;;;0.60;;
3922;SDS011;1976;51.694;6.256;2022-08-06T11:28:18;1.83;;;0.80;;
3922;SDS011;1976;51.694;6.256;2022-08-06T11:31:04;2.00;;;0.90;;
3922;SDS011;1976;51.694;6.256;2022-08-06T11:35:58;1.67;;;0.60;;
3922;SDS011;1976;51.694;6.256;2022-08-06T11:41:24;0.53;;;0.53;;
3922;SDS011;1976;51.694;6.256;2022-08-06T11:46:25;0.83;;;0.60;;
3922;SDS011;1976;51.694;6.256;2022-08-06T11:51:48;0.67;;;0.53;;
3922;SDS011;1976;51.694;6.256;2022-08-06T11:54:28;0.83;;;0.60;;
3922;SDS011;1976;51.694;6.256;2022-08-06T12:01:55;2.87;;;0.80;;
3922;SDS011;1976;51.694;6.256;2022-08-06T12:07:22;0.60;;;0.50;;
3922;SDS011;1976;51.694;6.256;2022-08-06T12:10:00;1.47;;;0.50;;
3922;SDS011;1976;51.694;6.256;2022-08-06T12:17:28;0.67;;;0.60;;
3922;SDS011;1976;51.694;6.256;2022-08-06T12:19:59;0.57;;;0.50;;
3922;SDS011;1976;51.694;6.256;2022-08-06T12:22:28;1.00;;;0.60;;
3922;SDS011;1976;51.694;6.256;2022-08-06T12:24:57;0.60;;;0.60;;
3922;SDS011;1976;51.694;6.256;2022-08-06T12:27:29;0.60;;;0.53;;
3922;SDS011;1976;51.694;6.256;2022-08-06T12:29:57;1.33;;;0.60;;
3922;SDS011;1976;51.694;6.256;2022-08-06T12:32:28;2.53;;;0.70;;
3922;SDS011;1976;51.694;6.256;2022-08-06T12:34:54;1.93;;;0.70;;
3922;SDS011;1976;51.694;6.256;2022-08-06T12:37:42;2.67;;;0.83;;
3922;SDS011;1976;51.694;6.256;2022-08-06T12:40:15;1.20;;;0.70;;
3922;SDS011;1976;51.694;6.256;2022-08-06T12:42:54;0.70;;;0.60;;
3922;SDS011;1976;51.694;6.256;2022-08-06T12:45:26;9.80;;;1.03;;
3922;SDS011;1976;51.694;6.256;2022-08-06T12:48:03;1.97;;;0.90;;
3922;SDS011;1976;51.694;6.256;2022-08-06T12:50:31;1.10;;;0.60;;
3922;SDS011;1976;51.694;6.256;2022-08-06T12:53:15;0.60;;;0.60;;
3922;SDS011;1976;51.694;6.256;2022-08-06T12:55:45;1.90;;;0.90;;
3922;SDS011;1976;51.694;6.256;2022-08-06T12:58:13;0.60;;;0.60;;
3922;SDS011;1976;51.694;6.256;2022-08-06T13:00:41;0.50;;;0.50;;
3922;SDS011;1976;51.694;6.256;2022-08-06T13:03:11;1.03;;;0.50;;
3922;SDS011;1976;51.694;6.256;2022-08-06T13:05:38;1.37;;;0.90;;
3922;SDS011;1976;51.694;6.256;2022-08-06T13:08:05;3.57;;;1.10;;
3922;SDS011;1976;51.694;6.256;2022-08-06T13:10:31;0.97;;;0.70;;
3922;SDS011;1976;51.694;6.256;2022-08-06T13:12:58;1.20;;;0.60;;
3922;SDS011;1976;51.694;6.256;2022-08-06T13:15:29;0.90;;;0.60;;
3922;SDS011;1976;51.694;6.256;2022-08-06T13:17:59;2.47;;;1.00;;
3922;SDS011;1976;51.694;6.256;2022-08-06T13:20:34;0.80;;;0.77;;
3922;SDS011;1976;51.694;6.256;2022-08-06T13:23:08;1.00;;;0.70;;
3922;SDS011;1976;51.694;6.256;2022-08-06T13:25:42;1.13;;;0.70;;
3922;SDS011;1976;51.694;6.256;2022-08-06T13:28:15;1.67;;;0.73;;
3922;SDS011;1976;51.694;6.256;2022-08-06T13:30:44;15.43;;;0.93;;
3922;SDS011;1976;51.694;6.256;2022-08-06T13:33:21;1.47;;;1.03;;
3922;SDS011;1976;51.694;6.256;2022-08-06T13:35:49;4.80;;;1.40;;
3922;SDS011;1976;51.694;6.256;2022-08-06T13:38:29;5.60;;;0.90;;
3922;SDS011;1976;51.694;6.256;2022-08-06T13:40:57;1.53;;;0.80;;
3922;SDS011;1976;51.694;6.256;2022-08-06T13:43:40;6.13;;;1.27;;
3922;SDS011;1976;51.694;6.256;2022-08-06T13:46:08;1.43;;;0.93;;
3922;SDS011;1976;51.694;6.256;2022-08-06T13:48:58;1.10;;;0.93;;
3922;SDS011;1976;51.694;6.256;2022-08-06T13:51:25;1.80;;;1.20;;
3922;SDS011;1976;51.694;6.256;2022-08-06T13:53:51;12.13;;;1.70;;
3922;SDS011;1976;51.694;6.256;2022-08-06T13:56:17;0.70;;;0.70;;
3922;SDS011;1976;51.694;6.256;2022-08-06T13:58:43;1.60;;;0.97;;
3922;SDS011;1976;51.694;6.256;2022-08-06T14:01:12;1.50;;;1.00;;
3922;SDS011;1976;51.694;6.256;2022-08-06T14:03:39;2.47;;;1.10;;
3922;SDS011;1976;51.694;6.256;2022-08-06T14:06:05;2.50;;;0.90;;
3922;SDS011;1976;51.694;6.256;2022-08-06T14:08:31;0.70;;;0.70;;
3922;SDS011;1976;51.694;6.256;2022-08-06T14:10:57;3.10;;;1.00;;
3922;SDS011;1976;51.694;6.256;2022-08-06T14:13:22;3.40;;;1.10;;
3922;SDS011;1976;51.694;6.256;2022-08-06T14:15:49;1.93;;;0.90;;
3922;SDS011;1976;51.694;6.256;2022-08-06T14:18:17;0.97;;;0.80;;
3922;SDS011;1976;51.694;6.256;2022-08-06T14:20:44;2.10;;;1.10;;
3922;SDS011;1976;51.694;6.256;2022-08-06T14:23:10;3.90;;;1.10;;
3922;SDS011;1976;51.694;6.256;2022-08-06T14:25:37;3.80;;;0.90;;
3922;SDS011;1976;51.694;6.256;2022-08-06T14:28:02;1.00;;;0.80;;
3922;SDS011;1976;51.694;6.256;2022-08-06T14:30:29;3.43;;;1.13;;
3922;SDS011;1976;51.694;6.256;2022-08-06T14:32:55;4.10;;;1.10;;
3922;SDS011;1976;51.694;6.256;2022-08-06T14:35:21;1.20;;;0.77;;
3922;SDS011;1976;51.694;6.256;2022-08-06T14:37:47;5.03;;;0.70;;
3922;SDS011;1976;51.694;6.256;2022-08-06T14:40:13;1.63;;;0.90;;
3922;SDS011;1976;51.694;6.256;2022-08-06T14:42:39;8.03;;;1.13;;
3922;SDS011;1976;51.694;6.256;2022-08-06T14:45:24;1.53;;;0.70;;
3922;SDS011;1976;51.694;6.256;2022-08-06T14:47:50;8.97;;;0.73;;
3922;SDS011;1976;51.694;6.256;2022-08-06T14:50:17;1.47;;;0.93;;
3922;SDS011;1976;51.694;6.256;2022-08-06T14:52:44;2.03;;;1.00;;
3922;SDS011;1976;51.694;6.256;2022-08-06T14:55:10;3.80;;;0.87;;
3922;SDS011;1976;51.694;6.256;2022-08-06T14:57:36;2.30;;;0.87;;
3922;SDS011;1976;51.694;6.256;2022-08-06T15:00:04;3.07;;;0.77;;
3922;SDS011;1976;51.694;6.256;2022-08-06T15:02:31;1.27;;;0.80;;
3922;SDS011;1976;51.694;6.256;2022-08-06T15:04:56;1.20;;;0.63;;
3922;SDS011;1976;51.694;6.256;2022-08-06T15:07:23;1.50;;;0.70;;
3922;SDS011;1976;51.694;6.256;2022-08-06T15:09:49;1.73;;;0.83;;
3922;SDS011;1976;51.694;6.256;2022-08-06T15:12:15;2.83;;;0.60;;
3922;SDS011;1976;51.694;6.256;2022-08-06T15:14:41;0.87;;;0.77;;
3922;SDS011;1976;51.694;6.256;2022-08-06T15:17:07;3.20;;;0.90;;
3922;SDS011;1976;51.694;6.256;2022-08-06T15:19:33;5.27;;;1.00;;
3922;SDS011;1976;51.694;6.256;2022-08-06T15:21:58;2.30;;;1.13;;
3922;SDS011;1976;51.694;6.256;2022-08-06T15:24:24;1.47;;;0.80;;
3922;SDS011;1976;51.694;6.256;2022-08-06T15:26:52;1.23;;;1.13;;
3922;SDS011;1976;51.694;6.256;2022-08-06T15:29:19;3.07;;;0.93;;
3922;SDS011;1976;51.694;6.256;2022-08-06T15:31:46;1.23;;;1.00;;
3922;SDS011;1976;51.694;6.256;2022-08-06T15:34:12;2.73;;;0.80;;
3922;SDS011;1976;51.694;6.256;2022-08-06T15:36:38;4.10;;;0.87;;
3922;SDS011;1976;51.694;6.256;2022-08-06T15:39:04;3.73;;;1.20;;
3922;SDS011;1976;51.694;6.256;2022-08-06T15:41:30;2.63;;;1.17;;
3922;SDS011;1976;51.694;6.256;2022-08-06T15:43:57;8.80;;;1.30;;
3922;SDS011;1976;51.694;6.256;2022-08-06T15:46:22;2.27;;;0.90;;
3922;SDS011;1976;51.694;6.256;2022-08-06T15:48:48;2.90;;;1.30;;
3922;SDS011;1976;51.694;6.256;2022-08-06T15:51:14;4.00;;;1.40;;
3922;SDS011;1976;51.694;6.256;2022-08-06T15:53:40;4.07;;;1.20;;
3922;SDS011;1976;51.694;6.256;2022-08-06T15:56:06;1.67;;;1.00;;
3922;SDS011;1976;51.694;6.256;2022-08-06T15:58:31;3.00;;;1.70;;
3922;SDS011;1976;51.694;6.256;2022-08-06T16:00:57;1.47;;;1.00;;
3922;SDS011;1976;51.694;6.256;2022-08-06T16:03:23;1.00;;;0.90;;
3922;SDS011;1976;51.694;6.256;2022-08-06T16:05:49;1.83;;;0.80;;
3922;SDS011;1976;51.694;6.256;2022-08-06T16:08:14;4.83;;;1.10;;
3922;SDS011;1976;51.694;6.256;2022-08-06T16:10:44;6.60;;;1.10;;
3922;SDS011;1976;51.694;6.256;2022-08-06T16:13:12;1.57;;;0.80;;
3922;SDS011;1976;51.694;6.256;2022-08-06T16:15:46;2.10;;;0.93;;
3922;SDS011;1976;51.694;6.256;2022-08-06T16:18:14;1.70;;;1.00;;
3922;SDS011;1976;51.694;6.256;2022-08-06T16:20:44;5.30;;;0.80;;
3922;SDS011;1976;51.694;6.256;2022-08-06T16:23:11;0.70;;;0.70;;
3922;SDS011;1976;51.694;6.256;2022-08-06T16:25:37;0.70;;;0.70;;
3922;SDS011;1976;51.694;6.256;2022-08-06T16:28:04;2.80;;;0.70;;
3922;SDS011;1976;51.694;6.256;2022-08-06T16:30:30;3.83;;;1.10;;
3922;SDS011;1976;51.694;6.256;2022-08-06T16:32:55;1.00;;;0.70;;
3922;SDS011;1976;51.694;6.256;2022-08-06T16:35:21;2.07;;;0.70;;
3922;SDS011;1976;51.694;6.256;2022-08-06T16:37:47;0.90;;;0.73;;
3922;SDS011;1976;51.694;6.256;2022-08-06T16:40:15;2.57;;;1.07;;
3922;SDS011;1976;51.694;6.256;2022-08-06T16:42:40;1.20;;;0.70;;
3922;SDS011;1976;51.694;6.256;2022-08-06T16:45:06;3.10;;;0.93;;
3922;SDS011;1976;51.694;6.256;2022-08-06T16:47:33;3.80;;;1.20;;
3922;SDS011;1976;51.694;6.256;2022-08-06T16:49:58;1.27;;;0.80;;